sensor_id;sensor_type;location;lat;lon;timestamp;temperature;humidity
19248;DHT22;9758;48.640;8.148;2023-09-07T00:00:01;22.00;43.80
19248;DHT22;9758;48.640;8.148;2023-09-07T00:02:30;22.00;43.80
19248;DHT22;9758;48.640;8.148;2023-09-07T00:04:59;21.90;43.80
19248;DHT22;9758;48.640;8.148;2023-09-07T00:07:25;21.80;43.80
19248;DHT22;9758;48.640;8.148;2023-09-07T00:09:52;21.80;43.80
19248;DHT22;9758;48.640;8.148;2023-09-07T00:12:20;21.80;43.90
19248;DHT22;9758;48.640;8.148;2023-09-07T00:14:47;21.70;43.90
19248;DHT22;9758;48.640;8.148;2023-09-07T00:17:13;21.70;43.90
19248;DHT22;9758;48.640;8.148;2023-09-07T00:19:40;21.70;44.00
19248;DHT22;9758;48.640;8.148;2023-09-07T00:22:08;21.60;44.00
19248;DHT22;9758;48.640;8.148;2023-09-07T00:24:35;21.60;44.00
19248;DHT22;9758;48.640;8.148;2023-09-07T00:27:02;21.60;44.00
19248;DHT22;9758;48.640;8.148;2023-09-07T00:29:31;21.60;44.20
19248;DHT22;9758;48.640;8.148;2023-09-07T00:31:57;21.50;44.10
19248;DHT22;9758;48.640;8.148;2023-09-07T00:34:24;21.50;44.10
19248;DHT22;9758;48.640;8.148;2023-09-07T00:36:51;21.40;44.10
19248;DHT22;9758;48.640;8.148;2023-09-07T00:39:19;21.40;44.20
19248;DHT22;9758;48.640;8.148;2023-09-07T00:41:46;21.30;44.20
19248;DHT22;9758;48.640;8.148;2023-09-07T00:44:13;21.30;44.20
19248;DHT22;9758;48.640;8.148;2023-09-07T00:46:39;21.30;44.30
19248;DHT22;9758;48.640;8.148;2023-09-07T00:49:06;21.30;44.30
19248;DHT22;9758;48.640;8.148;2023-09-07T00:51:33;21.20;44.20
19248;DHT22;9758;48.640;8.148;2023-09-07T00:54:01;21.20;44.20
19248;DHT22;9758;48.640;8.148;2023-09-07T00:56:29;21.30;44.30
19248;DHT22;9758;48.640;8.148;2023-09-07T00:58:56;21.20;44.30
19248;DHT22;9758;48.640;8.148;2023-09-07T01:01:25;21.20;44.30
19248;DHT22;9758;48.640;8.148;2023-09-07T01:04:11;21.20;44.30
19248;DHT22;9758;48.640;8.148;2023-09-07T01:06:42;21.20;44.50
19248;DHT22;9758;48.640;8.148;2023-09-07T01:09:14;21.20;44.30
19248;DHT22;9758;48.640;8.148;2023-09-07T01:11:44;21.30;44.30
19248;DHT22;9758;48.640;8.148;2023-09-07T01:14:11;21.30;44.30
19248;DHT22;9758;48.640;8.148;2023-09-07T01:16:38;21.30;44.30
19248;DHT22;9758;48.640;8.148;2023-09-07T01:19:06;21.40;44.30
19248;DHT22;9758;48.640;8.148;2023-09-07T01:21:35;21.40;44.30
19248;DHT22;9758;48.640;8.148;2023-09-07T01:24:03;21.40;44.20
19248;DHT22;9758;48.640;8.148;2023-09-07T01:26:31;21.40;44.20
19248;DHT22;9758;48.640;8.148;2023-09-07T01:28:58;21.40;44.90
19248;DHT22;9758;48.640;8.148;2023-09-07T01:31:24;21.40;44.30
19248;DHT22;9758;48.640;8.148;2023-09-07T01:33:51;21.40;44.30
19248;DHT22;9758;48.640;8.148;2023-09-07T01:36:18;21.40;44.20
19248;DHT22;9758;48.640;8.148;2023-09-07T01:38:46;21.40;44.30
19248;DHT22;9758;48.640;8.148;2023-09-07T01:41:13;21.50;44.30
19248;DHT22;9758;48.640;8.148;2023-09-07T01:43:40;21.40;44.20
19248;DHT22;9758;48.640;8.148;2023-09-07T01:46:06;21.50;44.30
19248;DHT22;9758;48.640;8.148;2023-09-07T01:48:33;21.50;44.30
19248;DHT22;9758;48.640;8.148;2023-09-07T01:51:00;21.50;44.40
19248;DHT22;9758;48.640;8.148;2023-09-07T01:53:27;21.50;44.40
19248;DHT22;9758;48.640;8.148;2023-09-07T01:55:55;21.50;44.40
19248;DHT22;9758;48.640;8.148;2023-09-07T01:58:24;21.50;44.50
19248;DHT22;9758;48.640;8.148;2023-09-07T02:00:52;21.50;44.50
19248;DHT22;9758;48.640;8.148;2023-09-07T02:03:23;21.50;44.50
19248;DHT22;9758;48.640;8.148;2023-09-07T02:05:49;21.50;44.50
19248;DHT22;9758;48.640;8.148;2023-09-07T02:08:16;21.60;44.60
19248;DHT22;9758;48.640;8.148;2023-09-07T02:10:43;21.60;44.50
19248;DHT22;9758;48.640;8.148;2023-09-07T02:13:11;21.60;44.60
19248;DHT22;9758;48.640;8.148;2023-09-07T02:15:38;21.60;44.50
19248;DHT22;9758;48.640;8.148;2023-09-07T02:18:05;21.60;44.50
19248;DHT22;9758;48.640;8.148;2023-09-07T02:20:32;21.60;44.60
19248;DHT22;9758;48.640;8.148;2023-09-07T02:22:59;21.60;44.50
19248;DHT22;9758;48.640;8.148;2023-09-07T02:25:26;21.60;44.50
19248;DHT22;9758;48.640;8.148;2023-09-07T02:27:55;21.60;44.50
19248;DHT22;9758;48.640;8.148;2023-09-07T02:30:23;21.60;44.60
19248;DHT22;9758;48.640;8.148;2023-09-07T02:32:50;21.60;44.50
19248;DHT22;9758;48.640;8.148;2023-09-07T02:35:17;21.70;44.60
19248;DHT22;9758;48.640;8.148;2023-09-07T02:37:43;21.70;44.60
19248;DHT22;9758;48.640;8.148;2023-09-07T02:40:11;21.70;44.60
19248;DHT22;9758;48.640;8.148;2023-09-07T02:42:38;21.60;44.50
19248;DHT22;9758;48.640;8.148;2023-09-07T02:45:05;21.60;44.50
19248;DHT22;9758;48.640;8.148;2023-09-07T02:47:34;21.60;44.60
19248;DHT22;9758;48.640;8.148;2023-09-07T02:50:00;21.60;44.60
19248;DHT22;9758;48.640;8.148;2023-09-07T02:52:27;21.60;44.60
19248;DHT22;9758;48.640;8.148;2023-09-07T02:54:54;21.60;44.70
19248;DHT22;9758;48.640;8.148;2023-09-07T02:57:21;21.60;44.70
19248;DHT22;9758;48.640;8.148;2023-09-07T02:59:47;21.60;44.70
19248;DHT22;9758;48.640;8.148;2023-09-07T03:02:14;21.60;44.70
19248;DHT22;9758;48.640;8.148;2023-09-07T03:04:42;21.60;44.70
19248;DHT22;9758;48.640;8.148;2023-09-07T03:07:09;21.60;44.70
19248;DHT22;9758;48.640;8.148;2023-09-07T03:09:36;21.60;44.80
19248;DHT22;9758;48.640;8.148;2023-09-07T03:12:04;21.60;44.80
19248;DHT22;9758;48.640;8.148;2023-09-07T03:14:30;21.60;44.80
19248;DHT22;9758;48.640;8.148;2023-09-07T03:16:57;21.60;44.90
19248;DHT22;9758;48.640;8.148;2023-09-07T03:19:24;21.60;44.80
19248;DHT22;9758;48.640;8.148;2023-09-07T03:21:52;21.60;44.80
19248;DHT22;9758;48.640;8.148;2023-09-07T03:24:19;21.60;45.50
19248;DHT22;9758;48.640;8.148;2023-09-07T03:26:46;21.60;44.80
19248;DHT22;9758;48.640;8.148;2023-09-07T03:29:12;21.60;44.90
19248;DHT22;9758;48.640;8.148;2023-09-07T03:31:39;21.60;44.90
19248;DHT22;9758;48.640;8.148;2023-09-07T03:34:06;21.60;44.90
19248;DHT22;9758;48.640;8.148;2023-09-07T03:36:33;21.60;44.90
19248;DHT22;9758;48.640;8.148;2023-09-07T03:39:01;21.70;45.00
19248;DHT22;9758;48.640;8.148;2023-09-07T03:41:28;21.70;45.00
19248;DHT22;9758;48.640;8.148;2023-09-07T03:43:56;21.70;45.00
19248;DHT22;9758;48.640;8.148;2023-09-07T03:46:23;21.70;45.00
19248;DHT22;9758;48.640;8.148;2023-09-07T03:48:49;21.70;45.00
19248;DHT22;9758;48.640;8.148;2023-09-07T03:51:16;21.80;44.90
19248;DHT22;9758;48.640;8.148;2023-09-07T03:53:43;21.80;45.00
19248;DHT22;9758;48.640;8.148;2023-09-07T03:56:11;21.80;44.90
19248;DHT22;9758;48.640;8.148;2023-09-07T03:58:38;21.90;45.00
19248;DHT22;9758;48.640;8.148;2023-09-07T04:01:05;21.90;45.00
19248;DHT22;9758;48.640;8.148;2023-09-07T04:03:32;21.90;45.00
19248;DHT22;9758;48.640;8.148;2023-09-07T04:05:59;21.90;44.90
19248;DHT22;9758;48.640;8.148;2023-09-07T04:08:25;21.90;44.90
19248;DHT22;9758;48.640;8.148;2023-09-07T04:10:52;21.90;44.90
19248;DHT22;9758;48.640;8.148;2023-09-07T04:13:20;22.00;45.00
19248;DHT22;9758;48.640;8.148;2023-09-07T04:15:47;22.00;45.00
19248;DHT22;9758;48.640;8.148;2023-09-07T04:18:14;22.00;45.00
19248;DHT22;9758;48.640;8.148;2023-09-07T04:20:42;22.00;45.00
19248;DHT22;9758;48.640;8.148;2023-09-07T04:23:10;22.00;45.10
19248;DHT22;9758;48.640;8.148;2023-09-07T04:25:36;22.00;45.10
19248;DHT22;9758;48.640;8.148;2023-09-07T04:28:04;22.00;45.10
19248;DHT22;9758;48.640;8.148;2023-09-07T04:30:33;22.10;45.10
19248;DHT22;9758;48.640;8.148;2023-09-07T04:33:03;22.00;45.00
19248;DHT22;9758;48.640;8.148;2023-09-07T04:35:30;22.00;45.00
19248;DHT22;9758;48.640;8.148;2023-09-07T04:37:57;22.00;45.00
19248;DHT22;9758;48.640;8.148;2023-09-07T04:40:24;22.00;45.10
19248;DHT22;9758;48.640;8.148;2023-09-07T04:42:51;22.00;45.20
19248;DHT22;9758;48.640;8.148;2023-09-07T04:45:18;21.90;45.20
19248;DHT22;9758;48.640;8.148;2023-09-07T04:47:46;21.90;45.20
19248;DHT22;9758;48.640;8.148;2023-09-07T04:50:13;21.90;45.20
19248;DHT22;9758;48.640;8.148;2023-09-07T04:52:40;21.90;45.20
19248;DHT22;9758;48.640;8.148;2023-09-07T04:55:07;21.90;45.20
19248;DHT22;9758;48.640;8.148;2023-09-07T04:57:36;21.80;45.20
19248;DHT22;9758;48.640;8.148;2023-09-07T05:00:03;21.80;45.20
19248;DHT22;9758;48.640;8.148;2023-09-07T05:02:30;21.80;45.20
19248;DHT22;9758;48.640;8.148;2023-09-07T05:04:58;21.70;45.20
19248;DHT22;9758;48.640;8.148;2023-09-07T05:07:25;21.70;45.20
19248;DHT22;9758;48.640;8.148;2023-09-07T05:09:52;21.60;45.20
19248;DHT22;9758;48.640;8.148;2023-09-07T05:12:19;21.60;45.20
19248;DHT22;9758;48.640;8.148;2023-09-07T05:14:45;21.50;45.20
19248;DHT22;9758;48.640;8.148;2023-09-07T05:17:12;21.50;45.30
19248;DHT22;9758;48.640;8.148;2023-09-07T05:19:39;21.40;45.30
19248;DHT22;9758;48.640;8.148;2023-09-07T05:22:07;21.40;45.40
19248;DHT22;9758;48.640;8.148;2023-09-07T05:24:34;21.30;45.40
19248;DHT22;9758;48.640;8.148;2023-09-07T05:27:00;21.30;45.50
19248;DHT22;9758;48.640;8.148;2023-09-07T05:29:28;21.20;45.50
19248;DHT22;9758;48.640;8.148;2023-09-07T05:31:55;21.20;45.50
19248;DHT22;9758;48.640;8.148;2023-09-07T05:34:22;21.10;45.60
19248;DHT22;9758;48.640;8.148;2023-09-07T05:36:49;21.10;45.60
19248;DHT22;9758;48.640;8.148;2023-09-07T05:39:17;21.00;45.60
19248;DHT22;9758;48.640;8.148;2023-09-07T05:41:43;21.00;45.70
19248;DHT22;9758;48.640;8.148;2023-09-07T05:44:10;21.00;46.40
19248;DHT22;9758;48.640;8.148;2023-09-07T05:46:37;20.90;45.80
19248;DHT22;9758;48.640;8.148;2023-09-07T05:49:04;20.90;45.90
19248;DHT22;9758;48.640;8.148;2023-09-07T05:51:30;20.80;46.00
19248;DHT22;9758;48.640;8.148;2023-09-07T05:53:58;20.80;46.00
19248;DHT22;9758;48.640;8.148;2023-09-07T05:56:26;20.80;46.10
19248;DHT22;9758;48.640;8.148;2023-09-07T05:58:53;20.80;46.10
19248;DHT22;9758;48.640;8.148;2023-09-07T06:01:20;20.80;46.10
19248;DHT22;9758;48.640;8.148;2023-09-07T06:03:46;20.80;46.20
19248;DHT22;9758;48.640;8.148;2023-09-07T06:06:13;20.80;46.20
19248;DHT22;9758;48.640;8.148;2023-09-07T06:08:40;20.70;46.20
19248;DHT22;9758;48.640;8.148;2023-09-07T06:11:07;20.80;46.30
19248;DHT22;9758;48.640;8.148;2023-09-07T06:13:35;20.70;46.30
19248;DHT22;9758;48.640;8.148;2023-09-07T06:16:01;20.70;46.30
19248;DHT22;9758;48.640;8.148;2023-09-07T06:18:28;20.60;46.30
19248;DHT22;9758;48.640;8.148;2023-09-07T06:20:55;20.70;46.40
19248;DHT22;9758;48.640;8.148;2023-09-07T06:23:22;20.70;46.40
19248;DHT22;9758;48.640;8.148;2023-09-07T06:25:48;20.60;46.40
19248;DHT22;9758;48.640;8.148;2023-09-07T06:28:15;20.60;46.50
19248;DHT22;9758;48.640;8.148;2023-09-07T06:30:45;20.60;46.50
19248;DHT22;9758;48.640;8.148;2023-09-07T06:33:11;20.60;46.50
19248;DHT22;9758;48.640;8.148;2023-09-07T06:35:38;20.60;46.60
19248;DHT22;9758;48.640;8.148;2023-09-07T06:38:05;20.60;46.60
19248;DHT22;9758;48.640;8.148;2023-09-07T06:40:32;20.60;46.70
19248;DHT22;9758;48.640;8.148;2023-09-07T06:42:59;20.60;46.80
19248;DHT22;9758;48.640;8.148;2023-09-07T06:45:26;20.70;46.90
19248;DHT22;9758;48.640;8.148;2023-09-07T06:47:54;20.70;46.90
19248;DHT22;9758;48.640;8.148;2023-09-07T06:50:20;20.80;47.00
19248;DHT22;9758;48.640;8.148;2023-09-07T06:52:47;20.90;46.90
19248;DHT22;9758;48.640;8.148;2023-09-07T06:55:14;21.00;47.00
19248;DHT22;9758;48.640;8.148;2023-09-07T06:57:41;21.10;46.90
19248;DHT22;9758;48.640;8.148;2023-09-07T07:00:09;21.20;46.90
19248;DHT22;9758;48.640;8.148;2023-09-07T07:02:37;21.40;46.90
19248;DHT22;9758;48.640;8.148;2023-09-07T07:05:06;21.50;46.90
19248;DHT22;9758;48.640;8.148;2023-09-07T07:07:34;21.60;46.90
19248;DHT22;9758;48.640;8.148;2023-09-07T07:10:12;21.80;46.90
19248;DHT22;9758;48.640;8.148;2023-09-07T07:12:39;21.90;46.80
19248;DHT22;9758;48.640;8.148;2023-09-07T07:15:07;22.00;46.70
19248;DHT22;9758;48.640;8.148;2023-09-07T07:17:33;22.10;46.70
19248;DHT22;9758;48.640;8.148;2023-09-07T07:20:00;22.20;46.60
19248;DHT22;9758;48.640;8.148;2023-09-07T07:22:48;22.30;46.50
19248;DHT22;9758;48.640;8.148;2023-09-07T07:25:15;22.40;46.60
19248;DHT22;9758;48.640;8.148;2023-09-07T07:27:42;22.40;46.40
19248;DHT22;9758;48.640;8.148;2023-09-07T07:30:10;22.40;46.40
19248;DHT22;9758;48.640;8.148;2023-09-07T07:32:37;22.40;46.40
19248;DHT22;9758;48.640;8.148;2023-09-07T07:35:11;22.50;46.40
19248;DHT22;9758;48.640;8.148;2023-09-07T07:37:38;22.50;46.30
19248;DHT22;9758;48.640;8.148;2023-09-07T07:40:07;22.60;46.30
19248;DHT22;9758;48.640;8.148;2023-09-07T07:42:34;22.70;46.30
19248;DHT22;9758;48.640;8.148;2023-09-07T07:45:01;22.70;46.20
19248;DHT22;9758;48.640;8.148;2023-09-07T07:47:27;22.80;46.20
19248;DHT22;9758;48.640;8.148;2023-09-07T07:49:54;22.90;46.20
19248;DHT22;9758;48.640;8.148;2023-09-07T07:52:21;22.90;46.10
19248;DHT22;9758;48.640;8.148;2023-09-07T07:54:48;22.90;46.10
19248;DHT22;9758;48.640;8.148;2023-09-07T07:57:16;22.90;46.20
19248;DHT22;9758;48.640;8.148;2023-09-07T07:59:43;22.90;46.10
19248;DHT22;9758;48.640;8.148;2023-09-07T08:02:10;23.00;46.10
19248;DHT22;9758;48.640;8.148;2023-09-07T08:04:36;23.00;46.10
19248;DHT22;9758;48.640;8.148;2023-09-07T08:07:15;23.00;46.20
19248;DHT22;9758;48.640;8.148;2023-09-07T08:09:42;23.00;46.10
19248;DHT22;9758;48.640;8.148;2023-09-07T08:12:09;23.10;46.10
19248;DHT22;9758;48.640;8.148;2023-09-07T08:14:37;23.10;46.20
19248;DHT22;9758;48.640;8.148;2023-09-07T08:17:04;23.20;46.10
19248;DHT22;9758;48.640;8.148;2023-09-07T08:19:31;23.20;46.10
19248;DHT22;9758;48.640;8.148;2023-09-07T08:21:58;23.30;46.10
19248;DHT22;9758;48.640;8.148;2023-09-07T08:24:24;23.40;46.00
19248;DHT22;9758;48.640;8.148;2023-09-07T08:26:51;23.50;45.90
19248;DHT22;9758;48.640;8.148;2023-09-07T08:29:20;23.60;45.90
19248;DHT22;9758;48.640;8.148;2023-09-07T08:31:52;23.70;45.90
19248;DHT22;9758;48.640;8.148;2023-09-07T08:34:21;23.80;45.80
19248;DHT22;9758;48.640;8.148;2023-09-07T08:36:48;23.90;45.70
19248;DHT22;9758;48.640;8.148;2023-09-07T08:39:16;24.00;45.60
19248;DHT22;9758;48.640;8.148;2023-09-07T08:41:43;24.10;45.60
19248;DHT22;9758;48.640;8.148;2023-09-07T08:44:11;24.10;45.40
19248;DHT22;9758;48.640;8.148;2023-09-07T08:46:41;24.20;45.40
19248;DHT22;9758;48.640;8.148;2023-09-07T08:49:09;24.20;45.30
19248;DHT22;9758;48.640;8.148;2023-09-07T08:51:37;24.30;45.30
19248;DHT22;9758;48.640;8.148;2023-09-07T08:54:04;24.40;45.30
19248;DHT22;9758;48.640;8.148;2023-09-07T08:56:32;24.40;45.20
19248;DHT22;9758;48.640;8.148;2023-09-07T08:58:59;24.50;45.20
19248;DHT22;9758;48.640;8.148;2023-09-07T09:01:29;24.60;45.30
19248;DHT22;9758;48.640;8.148;2023-09-07T09:04:11;24.70;45.20
19248;DHT22;9758;48.640;8.148;2023-09-07T09:06:41;24.80;45.10
19248;DHT22;9758;48.640;8.148;2023-09-07T09:09:09;24.80;45.00
19248;DHT22;9758;48.640;8.148;2023-09-07T09:11:41;24.90;45.00
19248;DHT22;9758;48.640;8.148;2023-09-07T09:14:17;24.90;44.90
19248;DHT22;9758;48.640;8.148;2023-09-07T09:16:52;25.00;44.80
19248;DHT22;9758;48.640;8.148;2023-09-07T09:19:39;25.00;44.80
19248;DHT22;9758;48.640;8.148;2023-09-07T09:22:17;25.10;44.80
19248;DHT22;9758;48.640;8.148;2023-09-07T09:25:05;25.20;44.90
19248;DHT22;9758;48.640;8.148;2023-09-07T09:27:36;25.20;44.80
19248;DHT22;9758;48.640;8.148;2023-09-07T09:30:05;25.30;44.80
19248;DHT22;9758;48.640;8.148;2023-09-07T09:32:32;25.30;44.70
19248;DHT22;9758;48.640;8.148;2023-09-07T09:35:11;25.40;44.70
19248;DHT22;9758;48.640;8.148;2023-09-07T09:37:45;25.40;44.90
19248;DHT22;9758;48.640;8.148;2023-09-07T09:40:13;25.40;44.80
19248;DHT22;9758;48.640;8.148;2023-09-07T09:42:42;25.50;44.90
19248;DHT22;9758;48.640;8.148;2023-09-07T09:45:09;25.50;44.90
19248;DHT22;9758;48.640;8.148;2023-09-07T09:47:40;25.50;44.90
19248;DHT22;9758;48.640;8.148;2023-09-07T09:50:08;25.60;45.00
19248;DHT22;9758;48.640;8.148;2023-09-07T09:52:37;25.60;44.90
19248;DHT22;9758;48.640;8.148;2023-09-07T09:55:05;25.60;45.00
19248;DHT22;9758;48.640;8.148;2023-09-07T09:57:34;25.70;44.90
19248;DHT22;9758;48.640;8.148;2023-09-07T10:00:02;25.70;45.00
19248;DHT22;9758;48.640;8.148;2023-09-07T10:02:36;25.80;45.00
19248;DHT22;9758;48.640;8.148;2023-09-07T10:05:04;25.90;45.00
19248;DHT22;9758;48.640;8.148;2023-09-07T10:07:43;26.00;45.20
19248;DHT22;9758;48.640;8.148;2023-09-07T10:10:12;26.10;45.00
19248;DHT22;9758;48.640;8.148;2023-09-07T10:12:41;26.20;45.00
19248;DHT22;9758;48.640;8.148;2023-09-07T10:15:23;26.20;45.00
19248;DHT22;9758;48.640;8.148;2023-09-07T10:17:50;26.30;44.90
19248;DHT22;9758;48.640;8.148;2023-09-07T10:20:19;26.30;44.90
19248;DHT22;9758;48.640;8.148;2023-09-07T10:22:50;26.40;44.90
19248;DHT22;9758;48.640;8.148;2023-09-07T10:25:30;26.40;44.90
19248;DHT22;9758;48.640;8.148;2023-09-07T10:27:57;26.50;44.90
19248;DHT22;9758;48.640;8.148;2023-09-07T10:30:25;26.50;44.80
19248;DHT22;9758;48.640;8.148;2023-09-07T10:32:52;26.60;44.80
19248;DHT22;9758;48.640;8.148;2023-09-07T10:35:19;26.70;44.80
19248;DHT22;9758;48.640;8.148;2023-09-07T10:37:50;26.70;44.80
19248;DHT22;9758;48.640;8.148;2023-09-07T10:40:21;26.80;44.80
19248;DHT22;9758;48.640;8.148;2023-09-07T10:42:48;26.80;44.60
19248;DHT22;9758;48.640;8.148;2023-09-07T10:45:16;26.90;45.20
19248;DHT22;9758;48.640;8.148;2023-09-07T10:47:43;26.90;44.60
19248;DHT22;9758;48.640;8.148;2023-09-07T10:50:11;26.90;44.60
19248;DHT22;9758;48.640;8.148;2023-09-07T10:52:39;27.00;44.50
19248;DHT22;9758;48.640;8.148;2023-09-07T10:55:10;27.00;44.60
19248;DHT22;9758;48.640;8.148;2023-09-07T10:57:44;27.00;44.50
19248;DHT22;9758;48.640;8.148;2023-09-07T11:00:12;27.00;44.60
19248;DHT22;9758;48.640;8.148;2023-09-07T11:02:40;27.10;44.50
19248;DHT22;9758;48.640;8.148;2023-09-07T11:05:07;27.10;44.50
19248;DHT22;9758;48.640;8.148;2023-09-07T11:07:36;27.10;44.50
19248;DHT22;9758;48.640;8.148;2023-09-07T11:10:05;27.10;45.10
19248;DHT22;9758;48.640;8.148;2023-09-07T11:12:38;27.20;44.60
19248;DHT22;9758;48.640;8.148;2023-09-07T11:15:07;27.30;44.50
19248;DHT22;9758;48.640;8.148;2023-09-07T11:17:37;27.30;44.50
19248;DHT22;9758;48.640;8.148;2023-09-07T11:20:05;27.40;44.50
19248;DHT22;9758;48.640;8.148;2023-09-07T11:22:33;27.40;44.40
19248;DHT22;9758;48.640;8.148;2023-09-07T11:25:00;27.40;44.40
19248;DHT22;9758;48.640;8.148;2023-09-07T11:27:29;27.50;44.40
19248;DHT22;9758;48.640;8.148;2023-09-07T11:29:58;27.50;44.40
19248;DHT22;9758;48.640;8.148;2023-09-07T11:32:33;27.50;44.40
19248;DHT22;9758;48.640;8.148;2023-09-07T11:35:01;27.60;44.40
19248;DHT22;9758;48.640;8.148;2023-09-07T11:37:27;27.60;44.40
19248;DHT22;9758;48.640;8.148;2023-09-07T11:39:54;27.70;44.30
19248;DHT22;9758;48.640;8.148;2023-09-07T11:42:22;27.70;44.30
19248;DHT22;9758;48.640;8.148;2023-09-07T11:44:48;27.80;44.40
19248;DHT22;9758;48.640;8.148;2023-09-07T11:47:17;27.90;44.30
19248;DHT22;9758;48.640;8.148;2023-09-07T11:49:43;27.90;44.30
19248;DHT22;9758;48.640;8.148;2023-09-07T11:52:10;28.00;44.30
19248;DHT22;9758;48.640;8.148;2023-09-07T11:54:37;28.00;44.20
19248;DHT22;9758;48.640;8.148;2023-09-07T11:57:04;28.10;44.20
19248;DHT22;9758;48.640;8.148;2023-09-07T11:59:31;28.10;44.10
19248;DHT22;9758;48.640;8.148;2023-09-07T12:01:58;28.20;44.20
19248;DHT22;9758;48.640;8.148;2023-09-07T12:04:26;28.20;44.10
19248;DHT22;9758;48.640;8.148;2023-09-07T12:06:53;28.20;44.20
19248;DHT22;9758;48.640;8.148;2023-09-07T12:09:20;28.30;44.20
19248;DHT22;9758;48.640;8.148;2023-09-07T12:11:46;28.40;44.20
19248;DHT22;9758;48.640;8.148;2023-09-07T12:14:13;28.40;44.10
19248;DHT22;9758;48.640;8.148;2023-09-07T12:16:40;28.50;44.10
19248;DHT22;9758;48.640;8.148;2023-09-07T12:19:07;28.50;44.00
19248;DHT22;9758;48.640;8.148;2023-09-07T12:21:35;28.60;44.00
19248;DHT22;9758;48.640;8.148;2023-09-07T12:24:02;28.60;44.00
19248;DHT22;9758;48.640;8.148;2023-09-07T12:26:29;28.70;44.00
19248;DHT22;9758;48.640;8.148;2023-09-07T12:28:56;28.70;43.90
19248;DHT22;9758;48.640;8.148;2023-09-07T12:31:23;28.80;43.80
19248;DHT22;9758;48.640;8.148;2023-09-07T12:33:50;28.80;43.80
19248;DHT22;9758;48.640;8.148;2023-09-07T12:36:17;28.90;43.90
19248;DHT22;9758;48.640;8.148;2023-09-07T12:38:48;28.90;43.90
19248;DHT22;9758;48.640;8.148;2023-09-07T12:41:15;29.00;43.80
19248;DHT22;9758;48.640;8.148;2023-09-07T12:43:42;28.90;43.70
19248;DHT22;9758;48.640;8.148;2023-09-07T12:46:09;29.00;43.70
19248;DHT22;9758;48.640;8.148;2023-09-07T12:48:36;29.00;43.70
19248;DHT22;9758;48.640;8.148;2023-09-07T12:51:02;29.00;43.70
19248;DHT22;9758;48.640;8.148;2023-09-07T12:53:29;29.10;43.80
19248;DHT22;9758;48.640;8.148;2023-09-07T12:55:58;29.20;43.70
19248;DHT22;9758;48.640;8.148;2023-09-07T12:58:26;29.30;43.70
19248;DHT22;9758;48.640;8.148;2023-09-07T13:00:54;29.30;43.70
19248;DHT22;9758;48.640;8.148;2023-09-07T13:03:20;29.40;44.30
19248;DHT22;9758;48.640;8.148;2023-09-07T13:05:48;29.40;43.60
19248;DHT22;9758;48.640;8.148;2023-09-07T13:08:15;29.50;43.60
19248;DHT22;9758;48.640;8.148;2023-09-07T13:10:41;29.50;43.60
19248;DHT22;9758;48.640;8.148;2023-09-07T13:13:09;29.60;43.50
19248;DHT22;9758;48.640;8.148;2023-09-07T13:15:36;29.60;44.20
19248;DHT22;9758;48.640;8.148;2023-09-07T13:18:03;29.60;43.40
19248;DHT22;9758;48.640;8.148;2023-09-07T13:20:30;29.60;43.50
19248;DHT22;9758;48.640;8.148;2023-09-07T13:22:57;29.70;43.50
19248;DHT22;9758;48.640;8.148;2023-09-07T13:25:24;29.70;43.50
19248;DHT22;9758;48.640;8.148;2023-09-07T13:27:52;29.80;43.50
19248;DHT22;9758;48.640;8.148;2023-09-07T13:30:20;29.90;43.50
19248;DHT22;9758;48.640;8.148;2023-09-07T13:32:47;30.00;43.40
19248;DHT22;9758;48.640;8.148;2023-09-07T13:35:15;30.00;43.40
19248;DHT22;9758;48.640;8.148;2023-09-07T13:37:42;30.10;43.40
19248;DHT22;9758;48.640;8.148;2023-09-07T13:40:10;30.10;43.40
19248;DHT22;9758;48.640;8.148;2023-09-07T13:42:37;30.20;43.40
19248;DHT22;9758;48.640;8.148;2023-09-07T13:45:05;30.20;43.30
19248;DHT22;9758;48.640;8.148;2023-09-07T13:47:33;30.30;43.30
19248;DHT22;9758;48.640;8.148;2023-09-07T13:50:00;30.40;43.30
19248;DHT22;9758;48.640;8.148;2023-09-07T13:52:28;30.40;43.30
19248;DHT22;9758;48.640;8.148;2023-09-07T13:54:55;30.40;43.20
19248;DHT22;9758;48.640;8.148;2023-09-07T13:57:22;30.50;43.30
19248;DHT22;9758;48.640;8.148;2023-09-07T13:59:49;30.50;43.30
19248;DHT22;9758;48.640;8.148;2023-09-07T14:02:15;30.50;43.20
19248;DHT22;9758;48.640;8.148;2023-09-07T14:04:44;30.60;43.30
19248;DHT22;9758;48.640;8.148;2023-09-07T14:07:10;30.60;43.10
19248;DHT22;9758;48.640;8.148;2023-09-07T14:09:38;30.70;43.20
19248;DHT22;9758;48.640;8.148;2023-09-07T14:12:05;30.70;43.20
19248;DHT22;9758;48.640;8.148;2023-09-07T14:14:33;30.80;43.10
19248;DHT22;9758;48.640;8.148;2023-09-07T14:16:59;30.90;43.10
19248;DHT22;9758;48.640;8.148;2023-09-07T14:19:26;30.80;43.00
19248;DHT22;9758;48.640;8.148;2023-09-07T14:21:57;30.80;43.00
19248;DHT22;9758;48.640;8.148;2023-09-07T14:24:24;30.90;43.10
19248;DHT22;9758;48.640;8.148;2023-09-07T14:26:51;30.90;43.10
19248;DHT22;9758;48.640;8.148;2023-09-07T14:29:18;30.90;43.10
19248;DHT22;9758;48.640;8.148;2023-09-07T14:31:45;30.90;43.00
19248;DHT22;9758;48.640;8.148;2023-09-07T14:34:12;30.90;43.00
19248;DHT22;9758;48.640;8.148;2023-09-07T14:36:39;31.00;43.10
19248;DHT22;9758;48.640;8.148;2023-09-07T14:39:08;31.10;43.10
19248;DHT22;9758;48.640;8.148;2023-09-07T14:41:35;31.10;43.00
19248;DHT22;9758;48.640;8.148;2023-09-07T14:44:01;31.10;42.90
19248;DHT22;9758;48.640;8.148;2023-09-07T14:46:28;31.10;42.90
19248;DHT22;9758;48.640;8.148;2023-09-07T14:48:55;31.10;42.90
19248;DHT22;9758;48.640;8.148;2023-09-07T14:51:23;31.20;43.10
19248;DHT22;9758;48.640;8.148;2023-09-07T14:53:49;31.20;43.10
19248;DHT22;9758;48.640;8.148;2023-09-07T14:56:17;31.30;42.90
19248;DHT22;9758;48.640;8.148;2023-09-07T14:58:44;31.30;42.90
19248;DHT22;9758;48.640;8.148;2023-09-07T15:01:11;31.30;42.90
19248;DHT22;9758;48.640;8.148;2023-09-07T15:03:38;31.30;43.00
19248;DHT22;9758;48.640;8.148;2023-09-07T15:06:06;31.30;42.90
19248;DHT22;9758;48.640;8.148;2023-09-07T15:08:31;31.40;42.90
19248;DHT22;9758;48.640;8.148;2023-09-07T15:10:58;31.40;42.80
19248;DHT22;9758;48.640;8.148;2023-09-07T15:13:26;31.40;42.80
19248;DHT22;9758;48.640;8.148;2023-09-07T15:15:54;31.50;42.80
19248;DHT22;9758;48.640;8.148;2023-09-07T15:18:21;31.50;42.90
19248;DHT22;9758;48.640;8.148;2023-09-07T15:20:48;31.50;42.80
19248;DHT22;9758;48.640;8.148;2023-09-07T15:23:15;31.60;42.80
19248;DHT22;9758;48.640;8.148;2023-09-07T15:25:42;31.60;42.80
19248;DHT22;9758;48.640;8.148;2023-09-07T15:28:09;31.70;42.80
19248;DHT22;9758;48.640;8.148;2023-09-07T15:30:38;31.80;42.80
19248;DHT22;9758;48.640;8.148;2023-09-07T15:33:04;31.90;42.70
19248;DHT22;9758;48.640;8.148;2023-09-07T15:35:32;31.90;42.70
19248;DHT22;9758;48.640;8.148;2023-09-07T15:37:58;31.90;42.60
19248;DHT22;9758;48.640;8.148;2023-09-07T15:40:25;32.00;42.70
19248;DHT22;9758;48.640;8.148;2023-09-07T15:42:53;32.30;42.90
19248;DHT22;9758;48.640;8.148;2023-09-07T15:45:20;32.60;43.20
19248;DHT22;9758;48.640;8.148;2023-09-07T15:47:48;33.10;43.60